»·PEaware :: ACA850 CYYC-EGLL

ACA850 :: CYYC-EGLL

FLIGHT INFORMATION

Flight Status: Arrived
Operator:
Air Canada
More flights by this operator :: More flights under this callsign
Pilot: Andrew J. (13363)
Aircraft: Unknown
(B789)
More flights by this aircraft type
Origin: CYYC Calgary Intl
Canada
Destination: EGLL Heathrow
United Kingdom
More flights between these airports :: More routes between these airports
Route: LOMLO PERTU Q961 TULOV YPA YTH YGX 5730N09000W KELMU AMASS GRIBS MAXAR 62N050W 61N040W 60N030W 58N020W SUNOT KESIX MIMKU KELLY UL10 WAL UY53 NUGRA BNN1B
File this flight plan on PilotEdge
Remarks:
Altitude:
(Current/Filed)
39,000ft
Speed:
(Current/Filed)
420kts
Departed: 01-Jun-18 11:37 PM
Arrived: 02-Jun-18 08:54 AM
Distance/Time
Traveled:
3786nm/9:17
Distance/Time
To Go:
Arrived

Flight Plot

Page will automatically refresh every two minutes.

Flight plan parsing failed; only flown route is shown


Map Options




Map Legend


Flown Route
Filed Route
Departure Airport
Arrival Airport
Navaid (VOR, NDB)
Fix

Horizontal Profiles

Position Reports

Time Latitude Longitude Heading Altitude Ground
Speed
01-Jun-18 23:36 51.087197 -113.586734 100 12584ft 398kts
01-Jun-18 23:37 51.074335 -113.439151 96 15026ft 411kts
01-Jun-18 23:38 51.061880 -113.254460 94 17556ft 429kts
01-Jun-18 23:39 51.048881 -113.061882 95 19752ft 445kts
01-Jun-18 23:40 51.034791 -112.863811 95 21738ft 458kts
01-Jun-18 23:41 51.019938 -112.660065 96 23574ft 470kts
01-Jun-18 23:42 51.008186 -112.502276 96 24856ft 479kts
01-Jun-18 23:43 50.992023 -112.289936 97 26495ft 490kts
01-Jun-18 23:44 50.975158 -112.072970 97 28065ft 502kts
01-Jun-18 23:45 50.957489 -111.851883 98 29943ft 506kts
01-Jun-18 23:46 50.939088 -111.627097 98 31565ft 521kts
01-Jun-18 23:47 50.957371 -111.404876 61 34028ft 519kts
01-Jun-18 23:48 51.041763 -111.218216 56 35916ft 520kts
01-Jun-18 23:49 51.123722 -111.027865 56 37094ft 524kts
01-Jun-18 23:50 51.206688 -110.835352 56 38542ft 525kts
01-Jun-18 23:51 51.289201 -110.642489 56 39084ft 527kts
01-Jun-18 23:52 51.371565 -110.448511 57 39081ft 528kts
01-Jun-18 23:53 51.453993 -110.252914 58 39076ft 529kts
01-Jun-18 23:54 51.535888 -110.057086 58 39077ft 529kts
01-Jun-18 23:55 51.617538 -109.860379 59 39067ft 530kts
01-Jun-18 23:56 51.699184 -109.662137 59 39064ft 530kts
01-Jun-18 23:57 51.780178 -109.463914 59 39074ft 529kts
01-Jun-18 23:58 51.861117 -109.264449 59 39073ft 529kts
01-Jun-18 23:59 51.941384 -109.064967 60 39058ft 529kts
02-Jun-18 00:00 52.021295 -108.864827 61 39064ft 530kts
02-Jun-18 00:01 52.101322 -108.662792 61 39060ft 531kts
02-Jun-18 00:02 52.180814 -108.460652 61 39047ft 531kts
02-Jun-18 00:03 52.258337 -108.261743 62 39035ft 530kts
02-Jun-18 00:04 52.337321 -108.057587 62 39028ft 530kts
02-Jun-18 00:05 52.415689 -107.853564 62 39034ft 530kts
02-Jun-18 00:06 52.493732 -107.648503 63 39031ft 531kts
02-Jun-18 00:07 52.571841 -107.441694 63 39016ft 532kts
02-Jun-18 00:08 52.649423 -107.234532 64 39014ft 533kts
02-Jun-18 00:09 52.727132 -107.025372 65 39018ft 534kts
02-Jun-18 00:10 52.804335 -106.815864 65 39007ft 535kts
02-Jun-18 00:11 52.881248 -106.605325 65 38991ft 536kts
02-Jun-18 00:12 52.958192 -106.392927 66 38987ft 536kts
02-Jun-18 00:13 53.034604 -106.180209 66 38978ft 537kts
02-Jun-18 00:14 53.110809 -105.966214 66 38977ft 539kts
02-Jun-18 00:15 53.187303 -105.749566 67 38980ft 543kts
02-Jun-18 00:16 53.266921 -105.535165 63 38981ft 546kts
02-Jun-18 00:17 53.349038 -105.321147 64 38984ft 549kts
02-Jun-18 00:18 53.431191 -105.104567 64 38971ft 550kts
02-Jun-18 00:19 53.512951 -104.887365 64 38969ft 552kts
02-Jun-18 00:20 53.594858 -104.667715 64 38973ft 554kts
02-Jun-18 00:21 53.676481 -104.447056 64 38963ft 557kts
02-Jun-18 00:22 53.758118 -104.224492 64 38961ft 560kts
02-Jun-18 00:23 53.839889 -103.999061 63 38982ft 562kts
02-Jun-18 00:24 53.921225 -103.773001 64 38958ft 563kts
02-Jun-18 00:25 54.002270 -103.545768 64 38965ft 563kts
02-Jun-18 00:26 54.083120 -103.316912 63 38998ft 563kts
02-Jun-18 00:27 54.163421 -103.087557 63 38997ft 564kts
02-Jun-18 00:28 54.243669 -102.856118 63 39012ft 565kts
02-Jun-18 00:29 54.323415 -102.624262 63 39023ft 566kts
02-Jun-18 00:30 54.402682 -102.391042 63 39017ft 567kts
02-Jun-18 00:31 54.481911 -102.156165 63 39024ft 567kts
02-Jun-18 00:32 54.560333 -101.921086 63 39038ft 567kts
02-Jun-18 00:33 54.638639 -101.684225 63 39037ft 567kts
02-Jun-18 00:34 54.716280 -101.447197 63 39034ft 567kts
02-Jun-18 00:35 54.793404 -101.209367 62 39030ft 567kts
02-Jun-18 00:36 54.870236 -100.969967 62 39058ft 567kts
02-Jun-18 00:37 54.946304 -100.730713 62 39098ft 566kts
02-Jun-18 00:38 55.021736 -100.490905 62 39109ft 565kts
02-Jun-18 00:39 55.096905 -100.249654 62 39121ft 564kts
02-Jun-18 00:40 55.171284 -100.008552 62 39140ft 564kts
02-Jun-18 00:41 55.244956 -99.767057 62 39156ft 562kts
02-Jun-18 00:42 55.318309 -99.524533 62 39166ft 561kts
02-Jun-18 00:43 55.390775 -99.282035 62 39173ft 561kts
02-Jun-18 00:44 55.462925 -99.038354 62 39184ft 559kts
02-Jun-18 00:45 55.534221 -98.795062 62 39202ft 558kts
02-Jun-18 00:46 55.604856 -98.551408 61 39209ft 557kts
02-Jun-18 00:47 55.675099 -98.306614 61 39208ft 556kts
02-Jun-18 00:48 55.744547 -98.061934 61 39221ft 556kts
02-Jun-18 00:49 55.811783 -97.815097 66 39230ft 556kts
02-Jun-18 00:50 55.861594 -97.554093 71 39220ft 556kts
02-Jun-18 00:51 55.910152 -97.293169 71 39224ft 555kts
02-Jun-18 00:52 55.957638 -97.031971 71 39244ft 553kts
02-Jun-18 00:53 56.004709 -96.769964 70 39259ft 552kts
02-Jun-18 00:54 56.051032 -96.508450 71 39282ft 552kts
02-Jun-18 00:55 56.096734 -96.246677 71 39306ft 551kts
02-Jun-18 00:56 56.141948 -95.983928 71 39334ft 550kts
02-Jun-18 00:57 56.186335 -95.721765 71 39358ft 549kts
02-Jun-18 00:58 56.230222 -95.459178 71 39375ft 549kts
02-Jun-18 00:59 56.273687 -95.194929 71 39390ft 550kts
02-Jun-18 01:00 56.316454 -94.930699 71 39403ft 551kts
02-Jun-18 01:01 56.361609 -94.666583 63 39399ft 550kts
02-Jun-18 01:02 56.428981 -94.420386 60 39396ft 546kts
02-Jun-18 01:03 56.494287 -94.173321 60 39405ft 545kts
02-Jun-18 01:04 56.559569 -93.925336 60 39401ft 544kts
02-Jun-18 01:05 56.624096 -93.677401 60 39391ft 544kts
02-Jun-18 01:06 56.688135 -93.428441 60 39395ft 545kts
02-Jun-18 01:07 56.751996 -93.177632 61 39407ft 545kts
02-Jun-18 01:08 56.815174 -92.926527 61 39400ft 545kts
02-Jun-18 01:09 56.877885 -92.674446 61 39394ft 546kts
02-Jun-18 01:10 56.940301 -92.420671 61 39404ft 545kts
02-Jun-18 01:11 57.002002 -92.166862 61 39410ft 546kts
02-Jun-18 01:12 57.063384 -91.911233 61 39390ft 546kts
02-Jun-18 01:13 57.124052 -91.655819 61 39407ft 546kts
02-Jun-18 01:14 57.184281 -91.399340 61 39406ft 546kts
02-Jun-18 01:15 57.244092 -91.141169 61 39422ft 546kts
02-Jun-18 01:16 57.303191 -90.883070 61 39453ft 546kts
02-Jun-18 01:17 57.361797 -90.624050 61 39473ft 546kts
02-Jun-18 01:18 57.420073 -90.363281 62 39479ft 546kts
02-Jun-18 01:19 57.477630 -90.102511 62 39473ft 546kts
02-Jun-18 01:20 57.534483 -89.839755 62 39477ft 546kts
02-Jun-18 01:21 57.590326 -89.576806 62 39503ft 547kts
02-Jun-18 01:22 57.645660 -89.313043 63 39501ft 547kts
02-Jun-18 01:23 57.700597 -89.047663 63 39492ft 546kts
02-Jun-18 01:24 57.754724 -88.782622 63 39498ft 546kts
02-Jun-18 01:25 57.808287 -88.516942 63 39510ft 545kts
02-Jun-18 01:26 57.861497 -88.249677 63 39504ft 545kts
02-Jun-18 01:27 57.913938 -87.982415 63 39496ft 546kts
02-Jun-18 01:28 57.965817 -87.714277 63 39501ft 546kts
02-Jun-18 01:29 58.017322 -87.444427 64 39527ft 546kts
02-Jun-18 01:30 58.068069 -87.174922 64 39541ft 545kts
02-Jun-18 01:31 58.118181 -86.905032 64 39531ft 544kts
02-Jun-18 01:32 58.167778 -86.633957 64 39529ft 543kts
02-Jun-18 01:33 58.216531 -86.363521 64 39537ft 542kts
02-Jun-18 01:34 58.264891 -86.091682 65 39540ft 542kts
02-Jun-18 01:35 58.312450 -85.820105 65 39530ft 542kts
02-Jun-18 01:36 58.359396 -85.547731 65 39520ft 542kts
02-Jun-18 01:37 58.406019 -85.273710 65 39518ft 542kts
02-Jun-18 01:38 58.451806 -85.000003 66 39477ft 542kts
02-Jun-18 01:39 58.497063 -84.725508 66 39475ft 542kts
02-Jun-18 01:40 58.541887 -84.449415 66 39460ft 542kts
02-Jun-18 01:41 58.585916 -84.173621 66 39462ft 542kts
02-Jun-18 01:42 58.629518 -83.896171 67 39473ft 542kts
02-Jun-18 01:43 58.672370 -83.619272 67 39463ft 541kts
02-Jun-18 01:44 58.714621 -83.341671 67 39464ft 541kts
02-Jun-18 01:45 58.756339 -83.062598 68 39480ft 541kts
02-Jun-18 01:46 58.797379 -82.783680 68 39480ft 541kts
02-Jun-18 01:47 58.831099 -82.550831 68 39466ft 541kts
02-Jun-18 01:48 58.871088 -82.269961 68 39472ft 541kts
02-Jun-18 01:49 58.910404 -81.989384 69 39479ft 541kts
02-Jun-18 01:50 58.949064 -81.708430 69 39475ft 540kts
02-Jun-18 01:51 58.987197 -81.426054 69 39482ft 540kts
02-Jun-18 01:52 59.030743 -81.096964 70 39487ft 540kts
02-Jun-18 01:53 59.067448 -80.814241 70 39490ft 540kts
02-Jun-18 01:54 59.103574 -80.529899 71 39481ft 540kts
02-Jun-18 01:55 59.139075 -80.245829 71 39478ft 541kts
02-Jun-18 01:56 59.170044 -80.009601 66 39490ft 541kts
02-Jun-18 01:57 59.225962 -79.738369 60 39491ft 535kts
02-Jun-18 01:58 59.282831 -79.470851 61 39477ft 533kts
02-Jun-18 01:59 59.339403 -79.203040 62 39478ft 533kts
02-Jun-18 02:00 59.395502 -78.933241 62 39483ft 533kts
02-Jun-18 02:01 59.450876 -78.663337 62 39479ft 533kts
02-Jun-18 02:02 59.505895 -78.391620 63 39464ft 533kts
02-Jun-18 02:03 59.560235 -78.119838 63 39466ft 534kts
02-Jun-18 02:04 59.613953 -77.847219 63 39460ft 534kts
02-Jun-18 02:05 59.667301 -77.572645 64 39444ft 534kts
02-Jun-18 02:06 59.720013 -77.297891 64 39440ft 534kts
02-Jun-18 02:07 59.772151 -77.021984 65 39452ft 535kts
02-Jun-18 02:08 59.823921 -76.744009 65 39452ft 536kts
02-Jun-18 02:09 59.875001 -76.465895 65 39434ft 536kts
02-Jun-18 02:10 59.925523 -76.186669 66 39431ft 536kts
02-Jun-18 02:11 59.975647 -75.905547 66 39427ft 537kts
02-Jun-18 02:12 60.025018 -75.624482 66 39406ft 537kts
02-Jun-18 02:13 60.073953 -75.341716 67 39376ft 536kts
02-Jun-18 02:14 60.122061 -75.059124 67 39321ft 536kts
02-Jun-18 02:15 60.169619 -74.775666 68 39273ft 537kts
02-Jun-18 02:16 60.216813 -74.490111 68 39237ft 537kts
02-Jun-18 02:17 60.263210 -74.204251 68 39205ft 538kts
02-Jun-18 02:18 60.309103 -73.917136 69 39177ft 539kts
02-Jun-18 02:19 60.354571 -73.628133 69 39154ft 539kts
02-Jun-18 02:20 60.399260 -73.339315 70 39137ft 539kts
02-Jun-18 02:21 60.443275 -73.049880 71 39127ft 538kts
02-Jun-18 02:22 60.486821 -72.758710 71 39113ft 539kts
02-Jun-18 02:23 60.529539 -72.467624 71 39096ft 539kts
02-Jun-18 02:24 60.571914 -72.174489 71 39093ft 540kts
02-Jun-18 02:25 60.613455 -71.881286 72 39093ft 540kts
02-Jun-18 02:26 60.654435 -71.587218 72 39077ft 540kts
02-Jun-18 02:27 60.694833 -71.291404 73 39073ft 540kts
02-Jun-18 02:28 60.734487 -70.995939 73 39080ft 540kts
02-Jun-18 02:29 60.773501 -70.699684 74 39083ft 540kts
02-Jun-18 02:30 60.812003 -70.401561 74 39072ft 540kts
02-Jun-18 02:31 60.849708 -70.103557 74 39069ft 541kts
02-Jun-18 02:32 60.886778 -69.804756 75 39076ft 541kts
02-Jun-18 02:33 60.923345 -69.504005 75 39075ft 541kts
02-Jun-18 02:34 60.959082 -69.203783 75 39067ft 541kts
02-Jun-18 02:35 60.994286 -68.901973 76 39074ft 541kts
02-Jun-18 02:36 61.028659 -68.600565 76 39088ft 541kts
02-Jun-18 02:37 61.061063 -68.297897 78 39077ft 541kts
02-Jun-18 02:38 61.092242 -67.993328 78 39080ft 541kts
02-Jun-18 02:39 61.122692 -67.689063 79 39073ft 541kts
02-Jun-18 02:40 61.152484 -67.384084 79 39076ft 541kts
02-Jun-18 02:41 61.181693 -67.077276 79 39087ft 542kts
02-Jun-18 02:42 61.210100 -66.770910 80 39084ft 542kts
02-Jun-18 02:43 61.237815 -66.463903 80 39076ft 542kts
02-Jun-18 02:44 61.264928 -66.155545 81 39076ft 541kts
02-Jun-18 02:45 61.291272 -65.847773 81 39083ft 541kts
02-Jun-18 02:46 61.316878 -65.539408 81 39078ft 541kts
02-Jun-18 02:47 61.341886 -65.229417 82 39068ft 542kts
02-Jun-18 02:48 61.366162 -64.919792 82 39069ft 542kts
02-Jun-18 02:49 61.389774 -64.608402 83 39079ft 542kts
02-Jun-18 02:50 61.412625 -64.297557 84 39072ft 542kts
02-Jun-18 02:51 61.434780 -63.986262 84 39063ft 542kts
02-Jun-18 02:52 61.456272 -63.673379 84 39065ft 543kts
02-Jun-18 02:53 61.476998 -63.361125 85 39078ft 543kts
02-Jun-18 02:54 61.496685 -63.048247 87 39078ft 543kts
02-Jun-18 02:55 61.502892 -62.732582 93 39068ft 540kts
02-Jun-18 02:56 61.505601 -62.418538 93 39068ft 540kts
02-Jun-18 02:57 61.507528 -62.104686 93 39075ft 539kts
02-Jun-18 02:58 61.508765 -61.789890 94 39081ft 539kts
02-Jun-18 02:59 61.509291 -61.476134 94 39072ft 539kts
02-Jun-18 03:00 61.509056 -61.162409 94 39065ft 539kts
02-Jun-18 03:01 61.508111 -60.847548 95 39075ft 539kts
02-Jun-18 03:02 61.506470 -60.533884 95 39079ft 539kts
02-Jun-18 03:03 61.504065 -60.219092 95 39073ft 539kts
02-Jun-18 03:04 61.501017 -59.905705 96 39065ft 539kts
02-Jun-18 03:05 61.497216 -59.592408 97 39071ft 539kts
02-Jun-18 03:06 61.492646 -59.278120 97 39075ft 539kts
02-Jun-18 03:07 61.487411 -58.964575 98 39047ft 540kts
02-Jun-18 03:08 61.481413 -58.650917 98 39054ft 540kts
02-Jun-18 03:09 61.474663 -58.336194 98 39008ft 540kts
02-Jun-18 03:10 61.471776 -58.022080 93 38993ft 543kts
02-Jun-18 03:11 61.494688 -57.709044 82 38992ft 551kts
02-Jun-18 03:12 61.524319 -57.392378 84 39004ft 554kts
02-Jun-18 03:13 61.553424 -57.075196 84 38994ft 555kts
02-Jun-18 03:14 61.581700 -56.756961 84 38980ft 556kts
02-Jun-18 03:15 61.609303 -56.436727 85 38988ft 556kts
02-Jun-18 03:16 61.636144 -56.116741 85 38985ft 557kts
02-Jun-18 03:17 61.662405 -55.794782 86 38970ft 557kts
02-Jun-18 03:18 61.687748 -55.473197 86 38966ft 557kts
02-Jun-18 03:19 61.712362 -55.151567 86 38976ft 556kts
02-Jun-18 03:20 61.736257 -54.828699 87 38984ft 556kts
02-Jun-18 03:21 61.759302 -54.506175 87 38981ft 557kts
02-Jun-18 03:22 61.781626 -54.182661 88 38976ft 558kts
02-Jun-18 03:23 61.803347 -53.856862 88 38987ft 559kts
02-Jun-18 03:24 61.824224 -53.531554 88 38991ft 558kts
02-Jun-18 03:25 61.844306 -53.206564 88 38984ft 557kts
02-Jun-18 03:26 61.863560 -52.881056 89 38985ft 555kts
02-Jun-18 03:27 61.882016 -52.556614 89 38998ft 555kts
02-Jun-18 03:28 61.899711 -52.231414 90 38996ft 556kts
02-Jun-18 03:29 61.916706 -51.903962 90 38989ft 557kts
02-Jun-18 03:30 61.932947 -51.577037 90 39001ft 557kts
02-Jun-18 03:31 61.948399 -51.249571 91 39007ft 555kts
02-Jun-18 03:32 61.962967 -50.923759 91 39000ft 554kts
02-Jun-18 03:33 61.976738 -50.598359 91 39013ft 553kts
02-Jun-18 03:34 61.989782 -50.271462 92 39014ft 554kts
02-Jun-18 03:35 61.998483 -49.944547 101 39027ft 553kts
02-Jun-18 03:36 61.977150 -49.624568 105 39019ft 543kts
02-Jun-18 03:37 61.956841 -49.307619 106 39030ft 537kts
02-Jun-18 03:38 61.935734 -48.994909 106 39043ft 533kts
02-Jun-18 03:39 61.914035 -48.684550 106 39041ft 531kts
02-Jun-18 03:40 61.891622 -48.374112 106 39041ft 531kts
02-Jun-18 03:41 61.868563 -48.064890 106 39055ft 532kts
02-Jun-18 03:42 61.844681 -47.754931 107 39063ft 532kts
02-Jun-18 03:43 61.820296 -47.447003 106 39059ft 530kts
02-Jun-18 03:44 61.795280 -47.141014 106 39061ft 527kts
02-Jun-18 03:45 61.769614 -46.835770 106 39075ft 526kts
02-Jun-18 03:46 61.743460 -46.532870 107 39078ft 524kts
02-Jun-18 03:47 61.716678 -46.230970 107 39072ft 524kts
02-Jun-18 03:48 61.689101 -45.928325 107 39073ft 525kts
02-Jun-18 03:49 61.660965 -45.627381 107 39083ft 524kts
02-Jun-18 03:50 61.632138 -45.326714 107 39085ft 522kts
02-Jun-18 03:51 61.602901 -45.028725 107 39075ft 520kts
02-Jun-18 03:52 61.573135 -44.732434 107 39076ft 518kts
02-Jun-18 03:53 61.542623 -44.436568 108 39084ft 517kts
02-Jun-18 03:54 61.511672 -44.142384 108 39081ft 517kts
02-Jun-18 03:55 61.479998 -43.848040 108 39070ft 517kts
02-Jun-18 03:56 61.447809 -43.555532 108 39071ft 516kts
02-Jun-18 03:57 61.414951 -43.263171 108 39078ft 515kts
02-Jun-18 03:58 61.381629 -42.972849 108 39071ft 515kts
02-Jun-18 03:59 61.347636 -42.683237 109 39060ft 515kts
02-Jun-18 04:00 61.313058 -42.393114 108 39064ft 515kts
02-Jun-18 04:01 61.277855 -42.104433 109 39069ft 516kts
02-Jun-18 04:02 61.241971 -41.816384 109 39059ft 516kts
02-Jun-18 04:03 61.205459 -41.528072 109 39056ft 515kts
02-Jun-18 04:04 61.168502 -41.241965 109 39059ft 514kts
02-Jun-18 04:05 61.137303 -41.004579 109 39066ft 513kts
02-Jun-18 04:06 61.099254 -40.719699 109 39054ft 512kts
02-Jun-18 04:07 61.054312 -40.389769 109 39047ft 512kts
02-Jun-18 04:08 61.015062 -40.107076 109 39050ft 511kts
02-Jun-18 04:09 60.988321 -39.819344 98 39055ft 513kts
02-Jun-18 04:10 60.970698 -39.527858 100 39044ft 513kts
02-Jun-18 04:11 60.951793 -39.237416 100 39042ft 509kts
02-Jun-18 04:12 60.932412 -38.949669 100 39048ft 508kts
02-Jun-18 04:13 60.912481 -38.662839 100 39038ft 507kts
02-Jun-18 04:14 60.891905 -38.376005 100 39029ft 506kts
02-Jun-18 04:15 60.874367 -38.138489 100 39039ft 505kts
02-Jun-18 04:16 60.852845 -37.854290 100 39022ft 504kts
02-Jun-18 04:17 60.830695 -37.570307 100 39016ft 503kts
02-Jun-18 04:18 60.808023 -37.287899 100 39025ft 503kts
02-Jun-18 04:19 60.784821 -37.006186 101 39024ft 502kts
02-Jun-18 04:20 60.760936 -36.724079 101 39021ft 502kts
02-Jun-18 04:21 60.736596 -36.443904 100 39032ft 500kts
02-Jun-18 04:22 60.711664 -36.164090 101 39039ft 499kts
02-Jun-18 04:23 60.686319 -35.886524 101 39035ft 497kts
02-Jun-18 04:24 60.660489 -35.610189 101 39032ft 496kts
02-Jun-18 04:25 60.633999 -35.333588 101 39046ft 496kts
02-Jun-18 04:26 60.607025 -35.058294 101 39051ft 496kts
02-Jun-18 04:27 60.579486 -34.783353 101 39043ft 496kts
02-Jun-18 04:28 60.551331 -34.508316 101 39050ft 495kts
02-Jun-18 04:29 60.522796 -34.235609 101 39064ft 493kts
02-Jun-18 04:30 60.493810 -33.964337 101 39062ft 491kts
02-Jun-18 04:31 60.464278 -33.693513 101 39057ft 490kts
02-Jun-18 04:32 60.434276 -33.424231 101 39065ft 491kts
02-Jun-18 04:33 60.403632 -33.154214 102 39078ft 492kts
02-Jun-18 04:34 60.372515 -32.885275 102 39077ft 492kts
02-Jun-18 04:35 60.340889 -32.617117 101 39073ft 490kts
02-Jun-18 04:36 60.308700 -32.349603 101 39084ft 488kts
02-Jun-18 04:37 60.276275 -32.084774 101 39095ft 486kts
02-Jun-18 04:38 60.243462 -31.821608 101 39093ft 484kts
02-Jun-18 04:39 60.209994 -31.558325 102 39089ft 485kts
02-Jun-18 04:40 60.176142 -31.296073 102 39099ft 486kts
02-Jun-18 04:41 60.141699 -31.033752 102 39115ft 487kts
02-Jun-18 04:42 60.106527 -30.770875 102 39139ft 487kts
02-Jun-18 04:43 60.071028 -30.509828 102 39141ft 485kts
02-Jun-18 04:44 60.035161 -30.250333 102 39135ft 483kts
02-Jun-18 04:45 59.998658 -29.991615 103 39144ft 482kts
02-Jun-18 04:46 59.959642 -29.736136 104 39155ft 481kts
02-Jun-18 04:47 59.919990 -29.480694 104 39150ft 481kts
02-Jun-18 04:48 59.880063 -29.227280 103 39147ft 479kts
02-Jun-18 04:49 59.839780 -28.975280 103 39149ft 478kts
02-Jun-18 04:50 59.798969 -28.723694 104 39142ft 477kts
02-Jun-18 04:51 59.757889 -28.473826 104 39143ft 477kts
02-Jun-18 04:52 59.716310 -28.224500 104 39157ft 477kts
02-Jun-18 04:53 59.674084 -27.974677 104 39157ft 477kts
02-Jun-18 04:54 59.631458 -27.726221 104 39149ft 477kts
02-Jun-18 04:55 59.588434 -27.478490 104 39157ft 477kts
02-Jun-18 04:56 59.544862 -27.231084 104 39167ft 476kts
02-Jun-18 04:57 59.501046 -26.985534 104 39162ft 475kts
02-Jun-18 04:58 59.456692 -26.740109 104 39156ft 475kts
02-Jun-18 04:59 59.412064 -26.496233 104 39166ft 475kts
02-Jun-18 05:00 59.366938 -26.253150 105 39175ft 475kts
02-Jun-18 05:01 59.321231 -26.009794 105 39168ft 475kts
02-Jun-18 05:02 59.275198 -25.767801 105 39161ft 475kts
02-Jun-18 05:03 59.228681 -25.526230 105 39174ft 476kts
02-Jun-18 05:04 59.181581 -25.284326 105 39180ft 476kts
02-Jun-18 05:05 59.134124 -25.043883 106 39172ft 476kts
02-Jun-18 05:06 59.086186 -24.803890 106 39168ft 476kts
02-Jun-18 05:07 59.037539 -24.563645 106 39177ft 477kts
02-Jun-18 05:08 58.988647 -24.324588 106 39184ft 477kts
02-Jun-18 05:09 58.939116 -24.085072 106 39175ft 478kts
02-Jun-18 05:10 58.889189 -23.846873 107 39169ft 479kts
02-Jun-18 05:11 58.838729 -23.608834 107 39177ft 480kts
02-Jun-18 05:12 58.787615 -23.370334 107 39183ft 480kts
02-Jun-18 05:13 58.736155 -23.132934 107 39173ft 481kts
02-Jun-18 05:14 58.684155 -22.895905 108 39181ft 482kts
02-Jun-18 05:15 58.631455 -22.658416 108 39189ft 483kts
02-Jun-18 05:16 58.578383 -22.421819 109 39239ft 484kts
02-Jun-18 05:17 58.524740 -22.185285 109 39260ft 485kts
02-Jun-18 05:18 58.470324 -21.948215 110 39260ft 486kts
02-Jun-18 05:19 58.415560 -21.712175 110 39250ft 487kts
02-Jun-18 05:20 58.360285 -21.476460 110 39248ft 488kts
02-Jun-18 05:21 58.304332 -21.240568 110 39259ft 488kts
02-Jun-18 05:22 58.248130 -21.006032 110 39256ft 488kts
02-Jun-18 05:23 58.191250 -20.771300 111 39251ft 489kts
02-Jun-18 05:24 58.134033 -20.537677 111 39254ft 490kts
02-Jun-18 05:25 58.076256 -20.304267 112 39262ft 491kts
02-Jun-18 05:26 58.017761 -20.070487 112 39216ft 492kts
02-Jun-18 05:27 57.969835 -19.829523 104 39224ft 491kts
02-Jun-18 05:28 57.926660 -19.586397 105 39218ft 490kts
02-Jun-18 05:29 57.882884 -19.343258 105 39225ft 490kts
02-Jun-18 05:30 57.838669 -19.101479 106 39227ft 490kts
02-Jun-18 05:31 57.793949 -18.859790 106 39216ft 491kts
02-Jun-18 05:32 57.748623 -18.617705 106 39212ft 492kts
02-Jun-18 05:33 57.702866 -18.376769 107 39219ft 492kts
02-Jun-18 05:34 57.656634 -18.136298 107 39220ft 492kts
02-Jun-18 05:35 57.609780 -17.895438 107 39208ft 492kts
02-Jun-18 05:36 57.562615 -17.655995 107 39205ft 493kts
02-Jun-18 05:37 57.514794 -17.416288 107 39212ft 493kts
02-Jun-18 05:38 57.466719 -17.177944 108 39211ft 493kts
02-Jun-18 05:39 57.418145 -16.940213 108 39199ft 493kts
02-Jun-18 05:40 57.368941 -16.702233 108 39199ft 493kts
02-Jun-18 05:41 57.319506 -16.465603 108 39204ft 493kts
02-Jun-18 05:42 57.269576 -16.229676 109 39201ft 493kts
02-Jun-18 05:43 57.219043 -15.993550 109 39189ft 493kts
02-Jun-18 05:44 57.168235 -15.758790 109 39186ft 493kts
02-Jun-18 05:45 57.116991 -15.524672 110 39194ft 493kts
02-Jun-18 05:46 57.065114 -15.290590 110 39189ft 493kts
02-Jun-18 05:47 57.014001 -15.057249 106 39155ft 493kts
02-Jun-18 05:48 56.990513 -14.810612 91 39144ft 492kts
02-Jun-18 05:49 56.979008 -14.560685 93 39137ft 490kts
02-Jun-18 05:50 56.966479 -14.312245 94 39145ft 490kts
02-Jun-18 05:51 56.953416 -14.063167 94 39143ft 490kts
02-Jun-18 05:52 56.912650 -13.826718 111 39129ft 490kts
02-Jun-18 05:53 56.861741 -13.595176 110 39144ft 491kts
02-Jun-18 05:54 56.810328 -13.363256 110 39140ft 492kts
02-Jun-18 05:55 56.758712 -13.132511 111 39130ft 492kts
02-Jun-18 05:56 56.706644 -12.902452 111 39131ft 492kts
02-Jun-18 05:57 56.654040 -12.672291 111 39140ft 492kts
02-Jun-18 05:58 56.601129 -12.443571 111 39136ft 491kts
02-Jun-18 05:59 56.547884 -12.215610 112 39127ft 491kts
02-Jun-18 06:00 56.494003 -11.987534 112 39130ft 491kts
02-Jun-18 06:01 56.439909 -11.760949 112 39138ft 491kts
02-Jun-18 06:02 56.385302 -11.534305 112 39131ft 491kts
02-Jun-18 06:03 56.330392 -11.309213 113 39123ft 491kts
02-Jun-18 06:04 56.275112 -11.084618 113 39126ft 491kts
02-Jun-18 06:05 56.219237 -10.859984 113 39134ft 491kts
02-Jun-18 06:06 56.163148 -10.636762 113 39129ft 491kts
02-Jun-18 06:07 56.106675 -10.414342 114 39121ft 490kts
02-Jun-18 06:08 56.049636 -10.191856 114 39122ft 490kts
02-Jun-18 06:09 55.991072 -9.972180 118 39132ft 490kts
02-Jun-18 06:10 55.921356 -9.763761 120 39123ft 490kts
02-Jun-18 06:11 55.851471 -9.554604 120 39113ft 490kts
02-Jun-18 06:12 55.781236 -9.347098 120 39113ft 490kts
02-Jun-18 06:13 55.710480 -9.139506 120 39120ft 490kts
02-Jun-18 06:14 55.639665 -8.933572 121 39123ft 490kts
02-Jun-18 06:15 55.568545 -8.728549 121 39113ft 489kts
02-Jun-18 06:16 55.496853 -8.523572 121 39112ft 489kts
02-Jun-18 06:17 55.425069 -8.320059 121 39123ft 489kts
02-Jun-18 06:18 55.352961 -8.117317 121 39119ft 489kts
02-Jun-18 06:19 55.280277 -7.914640 122 39110ft 489kts
02-Jun-18 06:20 55.207655 -7.713647 122 39109ft 488kts
02-Jun-18 06:21 55.134773 -7.513780 122 39118ft 487kts
02-Jun-18 06:22 55.061377 -7.314111 122 39115ft 487kts
02-Jun-18 06:23 54.987921 -7.115923 123 39107ft 487kts
02-Jun-18 06:24 54.914228 -6.918709 123 39106ft 486kts
02-Jun-18 06:25 54.840057 -6.721685 123 39114ft 486kts
02-Jun-18 06:26 54.765939 -6.526235 123 39118ft 485kts
02-Jun-18 06:27 54.691236 -6.331099 123 39109ft 485kts
02-Jun-18 06:28 54.616570 -6.137281 123 39106ft 485kts
02-Jun-18 06:29 54.541536 -5.944311 124 39111ft 485kts
02-Jun-18 06:30 54.466163 -5.751597 123 39120ft 484kts
02-Jun-18 06:31 54.390707 -5.560562 124 39116ft 483kts
02-Jun-18 06:32 54.327719 -5.402035 124 39116ft 483kts
02-Jun-18 06:33 54.251741 -5.212068 124 39134ft 482kts
02-Jun-18 06:34 54.175836 -5.023999 124 39136ft 481kts
02-Jun-18 06:35 54.099924 -4.836943 125 39133ft 479kts
02-Jun-18 06:36 54.023630 -4.650670 125 39143ft 478kts
02-Jun-18 06:37 53.947556 -4.466078 125 39147ft 477kts
02-Jun-18 06:38 53.871641 -4.281877 124 39138ft 477kts
02-Jun-18 06:39 53.795966 -4.097088 125 39133ft 476kts
02-Jun-18 06:40 53.720267 -3.913931 125 39145ft 476kts
02-Jun-18 06:41 53.644005 -3.730908 125 39149ft 476kts
02-Jun-18 06:42 53.568040 -3.549796 125 39141ft 471kts
02-Jun-18 06:43 53.492425 -3.370568 125 39134ft 470kts
02-Jun-18 06:44 53.416329 -3.191752 125 39145ft 470kts
02-Jun-18 06:45 53.339145 -3.015511 126 39147ft 469kts
02-Jun-18 06:46 53.337295 -3.011368 126 39147ft 469kts
02-Jun-18 06:47 53.337295 -3.011368 126 39147ft 469kts
02-Jun-18 06:48 53.337295 -3.011368 126 39147ft 469kts
02-Jun-18 06:49 53.337295 -3.011368 126 39147ft 469kts
02-Jun-18 06:50 53.337295 -3.011368 126 39147ft 469kts
02-Jun-18 06:51 53.337295 -3.011368 126 39147ft 469kts
02-Jun-18 06:52 53.337295 -3.011368 126 39147ft 469kts
02-Jun-18 06:53 53.337295 -3.011368 126 39147ft 469kts
02-Jun-18 06:54 53.337295 -3.011368 126 39147ft 469kts
02-Jun-18 06:55 53.337295 -3.011368 126 39147ft 469kts
02-Jun-18 06:56 53.337295 -3.011368 126 39147ft 469kts
02-Jun-18 06:57 53.337295 -3.011368 126 39147ft 469kts
02-Jun-18 06:58 53.337295 -3.011368 126 39147ft 469kts
02-Jun-18 06:59 53.337295 -3.011368 126 39147ft 469kts
02-Jun-18 07:00 53.337295 -3.011368 126 39147ft 469kts
02-Jun-18 07:01 53.337295 -3.011368 126 39147ft 469kts
02-Jun-18 07:02 53.337295 -3.011368 126 39147ft 469kts
02-Jun-18 07:03 53.337295 -3.011368 126 39147ft 469kts
02-Jun-18 07:04 53.337295 -3.011368 126 39147ft 469kts
02-Jun-18 07:05 53.337295 -3.011368 126 39147ft 469kts
02-Jun-18 07:06 53.337295 -3.011368 126 39147ft 469kts
02-Jun-18 07:07 53.337295 -3.011368 126 39147ft 469kts
02-Jun-18 07:08 53.337295 -3.011368 126 39147ft 469kts
02-Jun-18 07:09 53.337295 -3.011368 126 39147ft 469kts
02-Jun-18 07:10 53.337295 -3.011368 126 39147ft 469kts
02-Jun-18 07:11 53.337295 -3.011368 126 39147ft 469kts
02-Jun-18 07:12 53.337295 -3.011368 126 39147ft 469kts
02-Jun-18 07:13 53.337295 -3.011368 126 39147ft 469kts
02-Jun-18 07:14 53.337295 -3.011368 126 39147ft 469kts
02-Jun-18 07:15 53.337295 -3.011368 126 39147ft 469kts
02-Jun-18 07:16 53.337295 -3.011368 126 39147ft 469kts
02-Jun-18 07:17 53.337295 -3.011368 126 39147ft 469kts
02-Jun-18 07:18 53.337295 -3.011368 126 39147ft 469kts
02-Jun-18 07:19 53.337295 -3.011368 126 39147ft 469kts
02-Jun-18 07:20 53.337295 -3.011368 126 39147ft 469kts
02-Jun-18 07:21 53.337295 -3.011368 126 39147ft 469kts
02-Jun-18 07:22 53.337295 -3.011368 126 39147ft 469kts
02-Jun-18 07:23 53.337295 -3.011368 126 39147ft 469kts
02-Jun-18 07:24 53.337295 -3.011368 126 39147ft 469kts
02-Jun-18 07:25 53.337295 -3.011368 126 39147ft 469kts
02-Jun-18 07:26 53.337295 -3.011368 126 39147ft 469kts
02-Jun-18 07:27 53.337295 -3.011368 126 39147ft 469kts
02-Jun-18 07:28 53.337295 -3.011368 126 39147ft 469kts
02-Jun-18 07:29 53.337295 -3.011368 126 39147ft 469kts
02-Jun-18 07:30 53.337295 -3.011368 126 39147ft 469kts
02-Jun-18 07:31 53.337295 -3.011368 126 39147ft 469kts
02-Jun-18 07:32 53.337295 -3.011368 126 39147ft 469kts
02-Jun-18 07:33 53.337295 -3.011368 126 39147ft 469kts
02-Jun-18 07:34 53.337295 -3.011368 126 39147ft 469kts
02-Jun-18 07:35 53.337295 -3.011368 126 39147ft 469kts
02-Jun-18 07:36 53.337295 -3.011368 126 39147ft 469kts
02-Jun-18 07:37 53.337295 -3.011368 126 39147ft 469kts
02-Jun-18 07:38 53.337295 -3.011368 126 39147ft 469kts
02-Jun-18 07:39 53.337295 -3.011368 126 39147ft 469kts
02-Jun-18 07:40 53.337295 -3.011368 126 39147ft 469kts
02-Jun-18 07:41 53.337295 -3.011368 126 39147ft 469kts
02-Jun-18 07:42 53.337295 -3.011368 126 39147ft 469kts
02-Jun-18 07:43 53.337295 -3.011368 126 39147ft 469kts
02-Jun-18 07:44 53.337295 -3.011368 126 39147ft 469kts
02-Jun-18 07:45 53.337295 -3.011368 126 39147ft 469kts
02-Jun-18 07:46 53.337295 -3.011368 126 39147ft 469kts
02-Jun-18 07:47 53.337295 -3.011368 126 39147ft 469kts
02-Jun-18 07:48 53.337295 -3.011368 126 39147ft 469kts
02-Jun-18 07:49 53.337295 -3.011368 126 39147ft 469kts
02-Jun-18 07:50 53.337295 -3.011368 126 39147ft 469kts
02-Jun-18 07:51 53.337295 -3.011368 126 39147ft 469kts
02-Jun-18 07:52 53.337295 -3.011368 126 39147ft 469kts
02-Jun-18 07:53 53.337295 -3.011368 126 39147ft 469kts
02-Jun-18 07:54 53.337295 -3.011368 126 39147ft 469kts
02-Jun-18 07:55 53.337295 -3.011368 126 39147ft 469kts
02-Jun-18 07:56 53.337295 -3.011368 126 39147ft 469kts
02-Jun-18 07:57 53.337295 -3.011368 126 39147ft 469kts
02-Jun-18 07:58 53.337295 -3.011368 126 39147ft 469kts
02-Jun-18 07:59 53.337295 -3.011368 126 39147ft 469kts
02-Jun-18 08:00 53.337295 -3.011368 126 39147ft 469kts
02-Jun-18 08:01 53.337295 -3.011368 126 39147ft 469kts
02-Jun-18 08:02 53.337295 -3.011368 126 39147ft 469kts
02-Jun-18 08:03 53.337295 -3.011368 126 39147ft 469kts
02-Jun-18 08:04 53.337295 -3.011368 126 39147ft 469kts
02-Jun-18 08:05 53.337295 -3.011368 126 39147ft 469kts
02-Jun-18 08:06 53.337295 -3.011368 126 39147ft 469kts
02-Jun-18 08:07 53.337295 -3.011368 126 39147ft 469kts
02-Jun-18 08:08 53.337295 -3.011368 126 39147ft 469kts
02-Jun-18 08:09 53.337295 -3.011368 126 39147ft 469kts
02-Jun-18 08:10 53.337295 -3.011368 126 39147ft 469kts
02-Jun-18 08:11 53.337295 -3.011368 126 39147ft 469kts
02-Jun-18 08:12 53.337295 -3.011368 126 39147ft 469kts
02-Jun-18 08:13 53.337295 -3.011368 126 39147ft 469kts
02-Jun-18 08:14 53.337295 -3.011368 126 39147ft 469kts
02-Jun-18 08:15 53.337295 -3.011368 126 39147ft 469kts
02-Jun-18 08:16 53.337295 -3.011368 126 39147ft 469kts
02-Jun-18 08:17 53.337295 -3.011368 126 39147ft 469kts
02-Jun-18 08:18 53.337295 -3.011368 126 39147ft 469kts
02-Jun-18 08:19 53.337295 -3.011368 126 39147ft 469kts
02-Jun-18 08:20 53.337295 -3.011368 126 39147ft 469kts
02-Jun-18 08:21 53.337295 -3.011368 126 39147ft 469kts
02-Jun-18 08:22 53.337295 -3.011368 126 39147ft 469kts
02-Jun-18 08:23 53.307570 -2.944782 126 39160ft 473kts
02-Jun-18 08:24 53.228390 -2.767983 126 38617ft 480kts
02-Jun-18 08:25 53.146614 -2.586824 126 35868ft 488kts
02-Jun-18 08:26 53.070231 -2.402807 124 34091ft 477kts
02-Jun-18 08:27 52.978385 -2.249208 144 32326ft 464kts
02-Jun-18 08:28 52.869712 -2.137345 145 30523ft 456kts
02-Jun-18 08:29 52.764217 -2.027076 146 28871ft 442kts
02-Jun-18 08:30 52.660792 -1.919920 147 27226ft 435kts
02-Jun-18 08:31 52.559084 -1.815105 147 25543ft 429kts
02-Jun-18 08:32 52.458967 -1.712482 148 23995ft 420kts
02-Jun-18 08:33 52.360213 -1.611797 148 22371ft 413kts
02-Jun-18 08:34 52.263750 -1.513999 148 20893ft 404kts
02-Jun-18 08:35 52.173577 -1.406616 139 19291ft 397kts
02-Jun-18 08:36 52.090762 -1.290642 140 17678ft 389kts
02-Jun-18 08:37 52.009548 -1.178014 140 16022ft 380kts
02-Jun-18 08:38 51.929735 -1.067878 140 14703ft 372kts
02-Jun-18 08:39 51.853208 -0.957029 125 14387ft 371kts
02-Jun-18 08:40 51.806214 -0.808695 117 13968ft 371kts
02-Jun-18 08:41 51.760414 -0.660223 117 12775ft 360kts
02-Jun-18 08:42 51.714684 -0.524812 132 11546ft 329kts
02-Jun-18 08:43 51.697968 -0.412885 89 10668ft 315kts
02-Jun-18 08:44 51.700787 -0.277392 89 10119ft 287kts
02-Jun-18 08:45 51.695014 -0.155910 129 9725ft 261kts
02-Jun-18 08:46 51.636777 -0.099249 154 9157ft 238kts
02-Jun-18 08:47 51.575087 -0.069141 179 8152ft 232kts
02-Jun-18 08:48 51.516959 -0.105319 210 7015ft 230kts
02-Jun-18 08:49 51.470197 -0.164810 219 5825ft 204kts
02-Jun-18 08:50 51.463032 -0.246273 276 4300ft 179kts
02-Jun-18 08:51 51.465227 -0.319639 268 2663ft 153kts
02-Jun-18 08:52 51.465088 -0.387309 270 929ft 151kts
02-Jun-18 08:53 51.464901 -0.449430 271 96ft 90kts
02-Jun-18 08:54 51.466618 -0.458953 83 96ft 7kts
02-Jun-18 08:55 51.466637 -0.452498 88 96ft 15kts
02-Jun-18 08:56 51.466655 -0.443732 90 96ft 19kts
02-Jun-18 08:57 51.468415 -0.440530 0 96ft 11kts
02-Jun-18 08:58 51.470996 -0.441140 273 96ft 7kts
02-Jun-18 08:59 51.470998 -0.441996 269 96ft 0kts
02-Jun-18 09:00 51.470998 -0.441996 269 96ft 0kts
02-Jun-18 09:01 51.470998 -0.441996 269 96ft 0kts
02-Jun-18 09:02 51.470998 -0.441996 269 96ft 0kts
02-Jun-18 09:03 51.470998 -0.441996 269 96ft 0kts

Navigation Log

Ident Type
Flight plan parsing failed, navigation log unavailable